Flight Track Log - Related Links

Times and Time Zones

All times are in EDT time to prevent confusion due to time zone crossing. See the AAY855 flight status page for this flight to view local times or setup timezone preferences in your user account.

Time Position Orientation Groundspeed Altitude Reporting Facility
EDT Latitude Longitude Course Direction KTS MPH feet Rate Location/Type
Thu 06:04:45 PM 41.6981 -86.3583 130° Southeast 169 194 2,500  Level Chicago Center
Thu 06:05:47 PM 41.6547 -86.3839 204° Southwest 211 243 5,200 2,226 Climbing Chicago Center
Thu 06:06:49 PM 41.6000 -86.3128 136° Southeast 244 281 7,100 2,226 Climbing Chicago Center
Thu 06:07:51 PM 41.5200 -86.2953 171° South 289 333 9,800 2,129 Climbing Chicago Center
Thu 06:08:53 PM 41.4322 -86.2758 171° South 320 368 11,500 1,790 Climbing Chicago Center
Thu 06:09:55 PM 41.3242 -86.2558 172° South 388 447 13,500 2,129 Climbing Chicago Center
Thu 06:10:00 PM 41.2636 -85.6225 130° Southeast  Level FlightAware Approximate
Thu 06:10:57 PM 41.2119 -86.2350 172° South 406 467 15,900  Level Chicago Center
Thu 06:11:59 PM 41.0725 -86.2106 172° South 419 482 18,600 2,400 Climbing Chicago Center
Thu 06:13:02 PM 40.9517 -86.1881 172° South 435 501 20,900 2,064 Climbing Chicago Center
Thu 06:14:04 PM 40.8297 -86.1514 167° South 452 520 22,900 1,597 Climbing Chicago Center
Thu 06:15:06 PM 40.7033 -86.1264 171° South 454 522 24,200 1,694 Climbing Chicago Center
Thu 06:16:08 PM 40.5631 -86.0964 171° South 466 536 26,400 1,452 Climbing Chicago Center
Thu 06:17:10 PM 40.4356 -86.0708 171° South 466 536 27,200 871 Climbing Chicago Center
Thu 06:18:12 PM 40.3053 -86.0464 172° South 468 539 28,200 968 Climbing Chicago Center
Thu 06:19:14 PM 40.1706 -86.0197 171° South 481 554 29,200 871 Climbing Chicago Center
Thu 06:20:16 PM 40.0361 -85.9950 172° South 485 558 30,000 387 Climbing Chicago Center
Thu 06:21:18 PM 39.8756 -85.9886 178° South 475 547 30,000  Level Chicago Center
Thu 06:22:21 PM 39.7439 -86.0108 187° South 470 541 30,000  Level Chicago Center
Thu 06:23:23 PM 39.6117 -86.0306 187° South 470 541 30,000 435 Level Chicago Center
Thu 06:24:25 PM 39.4794 -86.0511 187° South 472 543 30,900 871 Climbing Chicago Center
Thu 06:25:27 PM 39.3425 -86.0472 179° South 498 573 31,800 840 Climbing Chicago Center
Thu 06:26:55 PM 39.1556 -86.0006 169° South 490 564 33,000 480 Climbing Indianapolis Center
Thu 06:27:57 PM 38.9961 -85.9689 171° South 487 560 33,000  Level Indianapolis Center
Thu 06:28:59 PM 38.8569 -85.9403 171° South 487 560 33,000  Level Indianapolis Center
Thu 06:30:01 PM 38.7233 -85.9125 171° South 486 559 33,000  Level Indianapolis Center
Thu 06:31:03 PM 38.5914 -85.8842 170° South 483 556 33,000  Level Indianapolis Center
Thu 06:32:05 PM 38.4578 -85.8561 171° South 482 555 33,000  Level Indianapolis Center
Thu 06:33:07 PM 38.3242 -85.8294 171° South 482 555 33,000  Level Indianapolis Center
Thu 06:34:09 PM 38.1903 -85.8008 170° South 482 555 33,000  Level Indianapolis Center
Thu 06:35:11 PM 38.0578 -85.7714 170° South 482 555 33,000  Level Indianapolis Center
Thu 06:36:14 PM 37.9244 -85.7447 171° South 482 555 33,000  Level Indianapolis Center
Thu 06:37:16 PM 37.7656 -85.7128 171° South 482 555 33,000  Level Indianapolis Center
Thu 06:38:18 PM 37.6344 -85.6847 170° South 480 552 33,000  Level Indianapolis Center
Thu 06:39:20 PM 37.5019 -85.6581 171° South 479 551 33,000  Level Indianapolis Center
Thu 06:40:22 PM 37.3717 -85.6325 171° South 478 550 33,000  Level Indianapolis Center
Thu 06:41:24 PM 37.2369 -85.6047 171° South 474 545 33,000  Level Indianapolis Center
Thu 06:42:26 PM 37.1056 -85.5778 171° South 474 545 33,000  Level Indianapolis Center
Thu 06:43:28 PM 36.9725 -85.5514 171° South 474 545 33,000  Level Indianapolis Center
Thu 06:44:30 PM 36.8392 -85.5231 170° South 475 547 33,000  Level Indianapolis Center
Thu 06:45:32 PM 36.6914 -85.4944 171° South 475 547 33,000  Level Indianapolis Center
Thu 06:46:34 PM 36.5611 -85.4681 171° South 475 547 33,000  Level Indianapolis Center
Thu 06:47:37 PM 36.4308 -85.4422 171° South 475 547 33,000  Level Indianapolis Center
Thu 06:48:39 PM 36.3019 -85.4172 171° South 475 547 33,000  Level Indianapolis Center
Thu 06:49:41 PM 36.1722 -85.3922 171° South 475 547 33,000  Level Indianapolis Center
Thu 06:50:43 PM 36.0164 -85.3614 171° South 474 545 33,000  Level Indianapolis Center
Thu 06:51:45 PM 35.8869 -85.3358 171° South 475 547 33,000  Level Indianapolis Center
Thu 06:52:47 PM 35.7586 -85.3111 171° South 474 545 33,000  Level Indianapolis Center
Thu 06:53:49 PM 35.6300 -85.2869 171° South 474 545 33,000  Level Indianapolis Center
Thu 06:54:51 PM 35.4758 -85.2564 171° South 474 545 33,000  Level Indianapolis Center
Thu 06:55:58 PM 35.3431 -85.2356 173° South 483 556 33,000  Level Atlanta Center
Thu 06:56:58 PM 35.2161 -85.2108 171° South 483 556 33,000  Level Atlanta Center
Thu 06:57:58 PM 35.0808 -85.1858 171° South 488 562 33,000  Level Atlanta Center
Thu 06:58:58 PM 34.9558 -85.1589 170° South 483 556 33,000  Level Atlanta Center
Thu 06:59:58 PM 34.8244 -85.1369 172° South 483 556 33,000  Level Atlanta Center
Thu 07:00:58 PM 34.6953 -85.1125 171° South 483 556 33,000  Level Atlanta Center
Thu 07:01:58 PM 34.5517 -85.0828 170° South 476 548 33,000  Level Atlanta Center
Thu 07:02:58 PM 34.4244 -85.0611 172° South 476 548 33,000  Level Atlanta Center
Thu 07:03:58 PM 34.2911 -85.0344 171° South 476 548 33,000  Level Atlanta Center
Thu 07:04:58 PM 34.1597 -85.0128 172° South 481 554 33,000  Level Atlanta Center
Thu 07:05:58 PM 34.0286 -84.9889 171° South 481 554 33,000  Level Atlanta Center
Thu 07:06:58 PM 33.8953 -84.9622 171° South 481 554 33,000  Level Atlanta Center
Thu 07:07:58 PM 33.7658 -84.9408 172° South 481 554 33,000  Level Atlanta Center
Thu 07:08:58 PM 33.6325 -84.9169 172° South 481 554 33,000  Level Atlanta Center
Thu 07:09:58 PM 33.5053 -84.8958 172° South 481 554 33,000  Level Atlanta Center
Thu 07:10:58 PM 33.3781 -84.8722 171° South 476 548 33,000  Level Atlanta Center
Thu 07:11:58 PM 33.2553 -84.8511 172° South 459 528 33,000  Level Atlanta Center
Thu 07:12:58 PM 33.1258 -84.8275 171° South 466 536 33,000  Level Atlanta Center
Thu 07:13:58 PM 32.9986 -84.8042 171° South 466 536 33,000  Level Atlanta Center
Thu 07:14:58 PM 32.8881 -84.7858 172° South 466 536 33,000  Level Atlanta Center
Thu 07:15:58 PM 32.7589 -84.7553 169° South 466 536 33,000  Level Atlanta Center
Thu 07:16:58 PM 32.6317 -84.7344 172° South 466 536 33,000  Level Atlanta Center
Thu 07:17:58 PM 32.5067 -84.7136 172° South 466 536 33,000  Level Atlanta Center
Thu 07:19:50 PM 32.2689 -84.6689 171° South 482 555 33,000  Level Jacksonville Center
Thu 07:20:51 PM 32.1461 -84.6469 171° South 476 548 33,000  Level Jacksonville Center
Thu 07:21:50 PM 32.0064 -84.6222 171° South 469 540 33,000  Level Jacksonville Center
Thu 07:22:50 PM 31.8814 -84.6003 172° South 462 532 33,000  Level Jacksonville Center
Thu 07:23:51 PM 31.7569 -84.5589 164° South 462 532 33,000  Level Jacksonville Center
Thu 07:24:51 PM 31.6322 -84.5153 163° South 468 539 33,000  Level Jacksonville Center
Thu 07:25:50 PM 31.5053 -84.4717 164° South 473 544 33,000  Level Jacksonville Center
Thu 07:26:51 PM 31.3783 -84.4281 164° South 473 544 33,000  Level Jacksonville Center
Thu 07:27:51 PM 31.2558 -84.3822 162° South 473 544 33,000  Level Jacksonville Center
Thu 07:28:50 PM 31.1289 -84.3414 165° South 473 544 33,000  Level Jacksonville Center
Thu 07:29:51 PM 31.0019 -84.2958 163° South 473 544 33,000  Level Jacksonville Center
Thu 07:30:51 PM 30.8731 -84.2528 164° South 473 544 33,000  Level Jacksonville Center
Thu 07:31:50 PM 30.7483 -84.2075 163° South 473 544 33,000  Level Jacksonville Center
Thu 07:32:51 PM 30.6214 -84.1647 164° South 473 544 33,000 -50 Level Jacksonville Center
Thu 07:33:50 PM 30.4986 -84.1222 163° South 468 539 32,900 -50 Descending Jacksonville Center
Thu 07:34:51 PM 30.3717 -84.0794 164° South 468 539 32,900  Level Jacksonville Center
Thu 07:35:51 PM 30.2467 -84.0394 165° South 473 544 32,900  Level Jacksonville Center
Thu 07:36:51 PM 30.1178 -83.9947 163° South 473 544 32,900 50 Level Jacksonville Center
Thu 07:37:51 PM 29.9908 -83.9525 164° South 473 544 33,000 50 Climbing Jacksonville Center
Thu 07:38:51 PM 29.8617 -83.9081 163° South 473 544 33,000 -50 Level Jacksonville Center
Thu 07:39:51 PM 29.7369 -83.8397 155° Southeast 479 551 32,900 -500 Descending Jacksonville Center
Thu 07:40:51 PM 29.6081 -83.7572 151° Southeast 504 580 32,000 -1,160 Descending Jacksonville Center
Thu 07:41:50 PM 29.4853 -83.6800 151° Southeast 509 586 30,600 -1,500 Descending Jacksonville Center
Thu 07:42:51 PM 29.3647 -83.6003 150° Southeast 509 586 29,000 -1,800 Descending Jacksonville Center
Thu 07:43:50 PM 29.2419 -83.5233 151° Southeast 501 577 27,000 -1,900 Descending Jacksonville Center
Thu 07:44:51 PM 29.1256 -83.4464 150° Southeast 496 571 25,200 -1,736 Descending Jacksonville Center
Thu 07:45:51 PM 29.0025 -83.3675 151° Southeast 491 565 23,500 -1,750 Descending Jacksonville Center
Thu 07:46:51 PM 28.8903 -83.2981 152° Southeast 491 565 21,700 -1,916 Descending Jacksonville Center
Thu 07:47:50 PM 28.7797 -83.2267 150° Southeast 478 550 19,700 -2,050 Descending Jacksonville Center
Thu 07:48:51 PM 28.6733 -83.1622 152° Southeast 457 526 17,600 -2,263 Descending Jacksonville Center
Thu 07:49:44 PM 28.5833 -83.1000 149° Southeast 426 490 15,400 -2,495 Descending Tampa TRACON
Thu 07:50:32 PM 28.5000 -83.0500 152° Southeast 415 478 13,400 -2,222 Descending Tampa TRACON
Thu 07:51:32 PM 28.4000 -83.0000 156° South 395 455 11,400 -1,263 Descending Tampa TRACON
Thu 07:52:26 PM 28.3167 -82.9500 152° Southeast 352 405 11,000 -211 Descending Tampa TRACON
Thu 07:53:26 PM 28.2333 -82.9333 170° South 333 383 11,000 -476 Level Tampa TRACON
Thu 07:54:32 PM 28.1333 -82.9000 164° South 301 346 10,000 -1,476 Descending Tampa TRACON
Thu 07:55:32 PM 28.0500 -82.8833 170° South 290 334 7,900 -2,050 Descending Tampa TRACON
Thu 07:56:32 PM 27.9833 -82.8500 156° South 289 333 5,900 -1,900 Descending Tampa TRACON
Thu 07:57:32 PM 27.9000 -82.8333 170° South 277 319 4,100 -1,600 Descending Tampa TRACON
Thu 07:58:32 PM 27.8333 -82.8167 168° South 232 267 2,700 -1,050 Descending Tampa TRACON
Thu 07:59:32 PM 27.8167 -82.7667 111° Southeast 195 224 2,000 -645 Descending Tampa TRACON
Thu 08:00:33 PM 27.8167 -82.7167 90° East 168 193 1,400 -496 Descending Tampa TRACON
Thu 08:01:33 PM 27.8500 -82.6833 41° Northeast 142 163 1,000 -550 Descending Tampa TRACON
Thu 08:02:33 PM 27.8833 -82.6833 360° North 127 146 300 -700 Descending Tampa TRACON

Login

Don't have an account? Register now (free) for customized features, flight alerts, and more!